Deadwood, South Dakota
Current Conditions -  °F | °C
As of 3:35 PM on Friday 28 Nov 2014 (Local Time) from KSPF Reporting Station
Clear Clear  
Wind Chill: 55°   Ceiling: Unl
Heat Index: 55°   Visibility: 10mi
Dew Point: 23°   Wind: 16mph
Humidity: 28%   Direction: 230°SW
Pressure: 29.6"   Gusts: 23mph
Location:  44.38°N, 103.73°W
Report Text: KSPF 282235Z AUTO 23014G20KT 10SM CLR 13/M05 A2960 RMK AO2
Loading
Personal Weather Stations






























Interactive Weather Map New forecast layout! Learn more

10-Day Weather Forecast

Advertisements
Track Severe Weather on mobile